Time;durP1;ratioP1;P1;durP2;ratioP2;P2;SDS_P1;SDS_P2;PMS_P1;PMS_P2;Temp;Humidity;BMP_temperature;BMP_pressure;BME280_temperature;BME280_humidity;BME280_pressure;Samples;Min_cycle;Max_cycle;Signal;HPM_P1;HPM_P2
2022/06/02 00:00:05;;;;;;;8.50;5.30;;;12.40;97.30;;;;;;5018106;28;20528;-82
2022/06/02 00:02:49;;;;;;;7.50;4.80;;;12.40;97.30;;;;;;5017772;28;20497;-81
2022/06/02 00:05:50;;;;;;;6.43;5.43;;;12.40;97.30;;;;;;5018355;28;20419;-82
2022/06/02 00:08:56;;;;;;;6.70;6.00;;;12.30;97.30;;;;;;5017801;28;20484;-82
2022/06/02 00:11:48;;;;;;;12.90;6.00;;;12.20;97.30;;;;;;5015992;28;20419;-82
2022/06/02 00:14:29;;;;;;;6.60;6.13;;;12.10;97.30;;;;;;5018159;28;20430;-82
2022/06/02 00:17:15;;;;;;;8.00;5.97;;;12.00;97.30;;;;;;5017921;28;20705;-82
2022/06/02 00:19:53;;;;;;;6.10;5.40;;;11.90;97.30;;;;;;5017930;28;20992;-82
2022/06/02 00:22:32;;;;;;;6.40;5.70;;;11.90;97.30;;;;;;5018591;28;20766;-82
2022/06/02 00:25:00;;;;;;;8.73;5.33;;;11.80;97.30;;;;;;5017718;28;20423;-82
2022/06/02 00:27:54;;;;;;;6.73;5.80;;;11.80;97.30;;;;;;5017389;28;20633;-83
2022/06/02 00:30:24;;;;;;;6.50;5.57;;;11.70;97.30;;;;;;5017936;28;20574;-82
2022/06/02 00:33:06;;;;;;;7.63;5.50;;;11.60;97.30;;;;;;5017323;28;20414;-82
2022/06/02 00:35:42;;;;;;;6.90;5.53;;;11.60;97.30;;;;;;5017838;28;20426;-82
2022/06/02 00:38:18;;;;;;;7.80;5.77;;;11.60;97.30;;;;;;5002762;28;20428;-82
2022/06/02 00:40:45;;;;;;;7.73;6.27;;;11.60;97.30;;;;;;4998396;28;20443;-82
2022/06/02 00:43:30;;;;;;;6.80;5.57;;;11.50;97.30;;;;;;4998383;28;20447;-84
2022/06/02 00:46:05;;;;;;;7.07;6.00;;;11.50;97.30;;;;;;4998634;28;20812;-84
2022/06/02 00:48:37;;;;;;;6.97;6.00;;;11.40;97.30;;;;;;4997910;28;20459;-84
2022/06/02 00:51:07;;;;;;;8.63;6.63;;;11.40;97.30;;;;;;4997922;28;20930;-84
2022/06/02 00:53:42;;;;;;;8.07;6.00;;;11.30;97.30;;;;;;5015343;28;20423;-84
2022/06/02 00:59:48;;;;;;;10.20;6.40;;;11.30;97.30;;;;;;5015877;28;20459;-84
2022/06/02 01:02:14;;;;;;;7.40;6.30;;;11.30;97.30;;;;;;4997899;28;20454;-84
2022/06/02 01:04:43;;;;;;;11.87;7.57;;;11.30;97.30;;;;;;4997418;28;20913;-84
2022/06/02 01:07:26;;;;;;;8.10;5.80;;;11.30;97.30;;;;;;4997385;28;20205;-84
2022/06/02 01:10:27;;;;;;;7.10;6.30;;;11.30;97.30;;;;;;4997704;28;20416;-84
2022/06/02 01:13:11;;;;;;;6.90;5.57;;;11.30;97.30;;;;;;4946989;28;20420;-84
2022/06/02 01:15:58;;;;;;;7.33;6.07;;;11.30;97.30;;;;;;4997250;28;20991;-84
2022/06/02 01:18:39;;;;;;;8.00;6.30;;;11.30;97.30;;;;;;4997729;28;20467;-84
2022/06/02 01:21:31;;;;;;;7.30;6.13;;;11.30;97.30;;;;;;4997743;28;20420;-84
2022/06/02 01:24:33;;;;;;;8.10;6.40;;;11.30;97.30;;;;;;4990091;28;20455;-84
2022/06/02 01:27:42;;;;;;;7.07;5.70;;;11.30;97.30;;;;;;4996635;28;20435;-84
2022/06/02 01:30:21;;;;;;;8.23;6.53;;;11.30;97.30;;;;;;4981564;28;20513;-84
2022/06/02 01:33:33;;;;;;;10.03;6.43;;;11.20;97.30;;;;;;4997052;28;20416;-84
2022/06/02 01:36:13;;;;;;;9.73;6.17;;;11.20;97.30;;;;;;4995293;28;20450;-83
2022/06/02 01:38:45;;;;;;;7.83;6.20;;;11.10;97.30;;;;;;4996628;28;21050;-84
2022/06/02 01:41:35;;;;;;;7.47;5.83;;;11.00;97.30;;;;;;4997149;28;20430;-84
2022/06/02 01:44:17;;;;;;;8.57;6.20;;;11.00;97.30;;;;;;4997189;28;20407;-84
2022/06/02 01:47:13;;;;;;;10.53;6.00;;;10.90;97.30;;;;;;4997117;28;20435;-84
2022/06/02 01:49:56;;;;;;;8.70;6.43;;;10.90;97.30;;;;;;4991380;28;20419;-84
2022/06/02 01:52:24;;;;;;;8.73;7.40;;;10.80;97.30;;;;;;4996845;28;20523;-84
2022/06/02 01:55:02;;;;;;;8.40;6.23;;;10.80;97.30;;;;;;4996269;28;20533;-84
2022/06/02 01:57:37;;;;;;;9.33;6.77;;;10.80;97.30;;;;;;4996717;28;20467;-84
2022/06/02 02:00:14;;;;;;;8.67;6.60;;;10.80;97.30;;;;;;4996682;28;20768;-84
2022/06/02 02:02:53;;;;;;;8.17;5.90;;;10.80;97.30;;;;;;4996090;28;20431;-83
2022/06/02 02:05:37;;;;;;;7.97;6.93;;;10.80;97.30;;;;;;4996829;28;20977;-84
2022/06/02 02:08:17;;;;;;;7.97;6.60;;;10.80;97.30;;;;;;4996650;28;20416;-84
2022/06/02 02:10:55;;;;;;;7.47;5.83;;;10.70;97.30;;;;;;4996507;28;20416;-84
2022/06/02 02:13:41;;;;;;;7.40;6.00;;;10.70;97.30;;;;;;4996566;28;20420;-84
2022/06/02 02:16:32;;;;;;;7.13;6.10;;;10.60;97.30;;;;;;4996622;28;20782;-85
2022/06/02 02:19:35;;;;;;;7.40;6.17;;;10.60;97.30;;;;;;4996351;28;20530;-84
2022/06/02 02:22:01;;;;;;;8.03;6.60;;;10.50;97.30;;;;;;4996846;28;20412;-84
2022/06/02 02:24:57;;;;;;;7.97;6.10;;;10.50;97.30;;;;;;4996551;28;20435;-83
2022/06/02 02:30:50;;;;;;;8.60;6.13;;;10.40;97.30;;;;;;5017548;28;20398;-83
2022/06/02 02:33:22;;;;;;;7.57;6.33;;;10.30;97.30;;;;;;4979461;28;20785;-84
2022/06/02 02:36:04;;;;;;;9.80;6.63;;;10.30;97.30;;;;;;4998236;28;20956;-84
2022/06/02 02:39:18;;;;;;;11.23;7.00;;;10.20;97.30;;;;;;5014540;28;20968;-84
2022/06/02 02:41:53;;;;;;;8.50;6.33;;;10.20;97.30;;;;;;5016114;28;20411;-84
2022/06/02 02:44:35;;;;;;;8.43;6.93;;;10.20;97.30;;;;;;5016188;28;20454;-84
2022/06/02 02:47:19;;;;;;;12.00;8.10;;;10.10;97.30;;;;;;5016299;28;20434;-84
2022/06/02 02:49:59;;;;;;;11.90;8.60;;;10.10;97.30;;;;;;5048083;28;20415;-84
2022/06/02 02:52:44;;;;;;;12.43;8.47;;;10.10;97.30;;;;;;5015814;28;20423;-84
2022/06/02 02:55:19;;;;;;;15.43;9.33;;;10.10;97.30;;;;;;5015464;28;20507;-84
2022/06/02 02:57:55;;;;;;;12.57;8.90;;;10.10;97.30;;;;;;5016030;28;20438;-84
2022/06/02 03:00:33;;;;;;;11.07;8.40;;;10.20;97.30;;;;;;5015710;28;20470;-84
2022/06/02 03:03:15;;;;;;;10.50;8.07;;;10.20;97.30;;;;;;5015700;28;20407;-84
2022/06/02 03:06:02;;;;;;;11.53;8.37;;;10.20;97.30;;;;;;5015885;28;20411;-83
2022/06/02 03:08:41;;;;;;;10.67;8.13;;;10.10;97.30;;;;;;5016498;28;20427;-84
2022/06/02 03:11:52;;;;;;;12.80;8.20;;;10.10;97.30;;;;;;5015571;28;20824;-84
2022/06/02 03:14:55;;;;;;;9.63;7.90;;;10.00;97.30;;;;;;5018182;28;20509;-83
2022/06/02 03:17:42;;;;;;;8.97;7.27;;;10.00;97.30;;;;;;5018885;28;20434;-83
2022/06/02 03:20:33;;;;;;;11.37;7.70;;;9.90;97.30;;;;;;5018294;28;20520;-83
2022/06/02 03:23:34;;;;;;;12.33;8.50;;;9.90;97.30;;;;;;5018412;28;20501;-83
2022/06/02 03:26:06;;;;;;;11.57;7.97;;;9.90;97.30;;;;;;5018114;28;20516;-83
2022/06/02 03:28:51;;;;;;;13.00;7.73;;;9.80;97.30;;;;;;5036484;28;20412;-83
2022/06/02 03:31:39;;;;;;;13.17;9.00;;;9.80;97.30;;;;;;5018483;28;20525;-81
2022/06/02 03:34:33;;;;;;;11.33;8.07;;;9.80;97.30;;;;;;5018755;28;20977;-81
2022/06/02 03:37:27;;;;;;;11.20;8.17;;;9.70;97.30;;;;;;5012770;28;20450;-81
2022/06/02 03:40:33;;;;;;;13.90;8.67;;;9.70;97.30;;;;;;4998742;28;20466;-81
2022/06/02 03:43:43;;;;;;;15.43;8.93;;;9.70;97.30;;;;;;4998839;28;20408;-81
2022/06/02 03:46:47;;;;;;;11.50;8.83;;;9.70;97.30;;;;;;4998165;28;20432;-81
2022/06/02 03:49:44;;;;;;;11.40;8.20;;;9.60;97.30;;;;;;4982939;28;20419;-81
2022/06/02 03:52:23;;;;;;;12.17;9.23;;;9.60;97.30;;;;;;4999714;28;20507;-81
2022/06/02 03:54:54;;;;;;;16.17;10.30;;;9.60;97.30;;;;;;5017541;28;20466;-81
2022/06/02 03:57:29;;;;;;;15.00;9.90;;;9.60;97.30;;;;;;5000109;28;20623;-81
2022/06/02 04:00:14;;;;;;;15.70;10.20;;;9.60;97.30;;;;;;5000302;28;20870;-81
2022/06/02 04:02:46;;;;;;;16.33;11.30;;;9.60;97.30;;;;;;5004701;28;20404;-81
2022/06/02 04:05:27;;;;;;;18.33;11.63;;;9.70;97.30;;;;;;5004477;28;20426;-81
2022/06/02 04:08:23;;;;;;;15.13;11.30;;;9.70;97.30;;;;;;5004101;28;20419;-81
2022/06/02 04:10:58;;;;;;;18.43;11.60;;;9.70;97.30;;;;;;5004554;28;20869;-81
2022/06/02 04:13:42;;;;;;;16.00;10.70;;;9.70;97.30;;;;;;5003764;28;20404;-81
2022/06/02 04:16:44;;;;;;;18.40;11.00;;;9.80;97.30;;;;;;5004272;28;20452;-81
2022/06/02 04:22:20;;;;;;;19.10;11.23;;;9.80;97.30;;;;;;5020700;28;20408;-81
2022/06/02 04:24:48;;;;;;;19.47;12.27;;;9.80;97.30;;;;;;5003106;28;20496;-81
2022/06/02 04:27:38;;;;;;;17.80;11.07;;;9.80;97.30;;;;;;5002714;28;20444;-81
2022/06/02 04:30:35;;;;;;;16.17;10.43;;;9.90;97.30;;;;;;5003416;28;20968;-81
2022/06/02 04:33:21;;;;;;;16.10;10.80;;;9.90;97.30;;;;;;5003465;28;20424;-81
2022/06/02 04:36:16;;;;;;;15.97;9.83;;;9.90;97.30;;;;;;5003751;28;20494;-81
2022/06/02 04:39:09;;;;;;;17.20;12.00;;;10.00;97.30;;;;;;5022990;28;20466;-82
2022/06/02 04:41:57;;;;;;;17.60;10.80;;;10.00;97.30;;;;;;5056200;28;20526;-81
2022/06/02 04:44:39;;;;;;;20.20;12.07;;;10.10;97.30;;;;;;5022545;28;20917;-81
2022/06/02 04:47:23;;;;;;;16.73;10.47;;;10.10;97.30;;;;;;5023183;28;20443;-81
2022/06/02 04:50:27;;;;;;;17.10;10.40;;;10.10;97.30;;;;;;5023261;28;20836;-81
2022/06/02 04:53:34;;;;;;;18.77;10.77;;;10.20;97.30;;;;;;5023273;28;20435;-81
2022/06/02 04:56:06;;;;;;;17.20;11.10;;;10.20;97.30;;;;;;5021753;28;20895;-81
2022/06/02 04:58:47;;;;;;;15.60;10.90;;;10.20;97.30;;;;;;5021858;28;20473;-81
2022/06/02 05:01:26;;;;;;;13.63;9.40;;;10.30;97.30;;;;;;5022396;28;20414;-81
2022/06/02 05:04:23;;;;;;;18.53;11.20;;;10.30;97.30;;;;;;5021392;28;20465;-81
2022/06/02 05:07:03;;;;;;;18.43;10.93;;;10.30;97.30;;;;;;5055359;28;20542;-81
2022/06/02 05:09:48;;;;;;;16.63;11.30;;;10.40;97.30;;;;;;5022735;28;20518;-81
2022/06/02 05:12:45;;;;;;;15.60;10.43;;;10.40;97.30;;;;;;5020859;28;20534;-81
2022/06/02 05:15:19;;;;;;;15.50;9.17;;;10.50;97.30;;;;;;5022007;28;20423;-81
2022/06/02 05:17:53;;;;;;;16.30;9.70;;;10.60;97.30;;;;;;5021726;28;20438;-81
2022/06/02 05:20:55;;;;;;;15.70;10.53;;;10.70;97.30;;;;;;5021353;28;20999;-81
2022/06/02 05:23:44;;;;;;;14.20;10.10;;;10.70;97.30;;;;;;5032505;28;20425;-81
2022/06/02 05:26:27;;;;;;;14.47;9.07;;;10.80;97.30;;;;;;5021210;28;20786;-81
2022/06/02 05:29:05;;;;;;;13.77;9.43;;;10.90;97.30;;;;;;5021751;28;20450;-81
2022/06/02 05:31:53;;;;;;;14.20;10.43;;;10.90;97.30;;;;;;5021381;28;20445;-81
2022/06/02 05:34:41;;;;;;;15.80;9.70;;;11.00;97.30;;;;;;5020649;28;20419;-82
2022/06/02 05:37:36;;;;;;;13.17;9.70;;;11.00;97.30;;;;;;5012680;28;20444;-82
2022/06/02 05:40:34;;;;;;;16.40;10.30;;;11.10;97.30;;;;;;4999303;28;20663;-82
2022/06/02 05:43:35;;;;;;;15.93;10.73;;;11.10;97.30;;;;;;5000254;28;20420;-82
2022/06/02 05:46:14;;;;;;;13.57;9.40;;;11.20;97.30;;;;;;5007920;28;20471;-82
2022/06/02 05:48:54;;;;;;;14.73;10.30;;;11.20;97.30;;;;;;5001064;28;20507;-82
2022/06/02 05:51:40;;;;;;;16.13;10.23;;;11.30;97.30;;;;;;4999347;28;20424;-82
2022/06/02 05:54:29;;;;;;;13.83;8.80;;;11.40;97.30;;;;;;4998421;28;20470;-82
2022/06/02 05:57:04;;;;;;;15.33;9.43;;;11.50;97.30;;;;;;4998409;28;20977;-82
2022/06/02 06:00:03;;;;;;;12.10;7.90;;;11.50;97.30;;;;;;5016423;28;21023;-82
2022/06/02 06:02:50;;;;;;;9.97;7.00;;;11.60;97.30;;;;;;4998936;28;20440;-82
2022/06/02 06:05:31;;;;;;;11.33;8.23;;;11.60;97.30;;;;;;4998704;28;20435;-82
2022/06/02 06:08:18;;;;;;;10.93;7.20;;;11.70;97.30;;;;;;4998585;28;20428;-82
2022/06/02 06:10:55;;;;;;;13.93;8.07;;;11.80;97.30;;;;;;4997884;28;20435;-82
2022/06/02 06:13:27;;;;;;;11.13;7.37;;;11.80;97.30;;;;;;5015220;28;20430;-82
2022/06/02 06:16:17;;;;;;;10.27;7.40;;;11.90;97.30;;;;;;4998108;28;20467;-82
2022/06/02 06:18:52;;;;;;;10.00;6.87;;;11.90;97.30;;;;;;4998480;28;20494;-81
2022/06/02 06:21:41;;;;;;;11.63;7.70;;;12.00;97.30;;;;;;4997209;28;20431;-82
2022/06/02 06:24:44;;;;;;;10.97;6.97;;;12.00;97.30;;;;;;4998483;28;20516;-82
2022/06/02 06:27:25;;;;;;;14.47;7.63;;;12.10;97.30;;;;;;4998964;28;20444;-82
2022/06/02 06:30:25;;;;;;;12.60;7.13;;;12.10;97.30;;;;;;4998158;28;20431;-82
2022/06/02 06:32:59;;;;;;;9.73;7.10;;;12.10;97.30;;;;;;4998601;28;20424;-82
2022/06/02 06:35:43;;;;;;;12.80;7.93;;;12.20;97.30;;;;;;4997778;28;20804;-82
2022/06/02 06:38:34;;;;;;;9.27;6.47;;;12.20;97.30;;;;;;5046008;28;20415;-82
2022/06/02 06:41:20;;;;;;;11.43;7.20;;;12.30;97.30;;;;;;5017696;28;20494;-82
2022/06/02 06:44:09;;;;;;;10.23;6.40;;;12.30;97.30;;;;;;5050568;28;20430;-82
2022/06/02 06:46:47;;;;;;;13.30;7.60;;;12.40;97.30;;;;;;5016565;28;20432;-82
2022/06/02 06:49:18;;;;;;;11.27;7.20;;;12.40;97.30;;;;;;5016591;28;20430;-82
2022/06/02 06:52:08;;;;;;;11.20;6.50;;;12.50;97.30;;;;;;5017435;28;20530;-82
2022/06/02 06:55:04;;;;;;;11.53;7.40;;;12.50;97.30;;;;;;5019135;28;20459;-82
2022/06/02 06:57:47;;;;;;;11.47;7.37;;;12.60;97.30;;;;;;5019635;28;20960;-82
2022/06/02 07:00:30;;;;;;;10.03;6.50;;;12.60;97.30;;;;;;5019424;28;20520;-80
2022/06/02 07:03:17;;;;;;;9.70;6.67;;;12.70;97.30;;;;;;5019732;28;21096;-83
2022/06/02 07:05:52;;;;;;;8.30;6.10;;;12.70;97.30;;;;;;5016545;28;20442;-82
2022/06/02 07:08:41;;;;;;;9.83;6.27;;;12.80;97.30;;;;;;5017038;28;20415;-82
2022/06/02 07:14:33;;;;;;;9.13;6.43;;;12.90;97.30;;;;;;5034107;28;20968;-83
2022/06/02 07:17:03;;;;;;;11.13;7.47;;;12.90;97.30;;;;;;5015979;28;20447;-81
2022/06/02 07:20:16;;;;;;;11.20;7.17;;;13.00;97.30;;;;;;5015622;28;20462;-82
2022/06/02 07:22:57;;;;;;;9.40;5.63;;;13.10;97.30;;;;;;5006169;28;20427;-83
2022/06/02 07:25:51;;;;;;;9.90;5.33;;;13.20;97.30;;;;;;5012975;28;20431;-83
2022/06/02 07:28:49;;;;;;;9.07;5.17;;;13.30;97.30;;;;;;5012998;28;20411;-83
2022/06/02 07:31:23;;;;;;;6.60;5.13;;;13.40;97.30;;;;;;5008036;28;20935;-84
2022/06/02 07:34:30;;;;;;;6.60;5.30;;;13.50;97.30;;;;;;5012945;28;20418;-83
2022/06/02 07:36:55;;;;;;;7.10;5.27;;;13.60;97.30;;;;;;4990386;28;20443;-83
2022/06/02 07:39:49;;;;;;;7.33;5.23;;;13.70;97.30;;;;;;4997374;28;20486;-82
2022/06/02 07:42:31;;;;;;;9.80;4.97;;;13.80;97.30;;;;;;4996010;28;20177;-83
2022/06/02 07:45:06;;;;;;;7.67;4.93;;;13.80;97.30;;;;;;4997381;28;20420;-82
2022/06/02 07:48:12;;;;;;;7.30;5.37;;;13.90;97.30;;;;;;4997828;28;20830;-82
2022/06/02 07:51:04;;;;;;;6.93;4.60;;;13.90;97.30;;;;;;4996453;28;20419;-82
2022/06/02 07:53:49;;;;;;;9.33;5.20;;;13.90;97.30;;;;;;4996200;28;20420;-83
2022/06/02 07:56:24;;;;;;;7.73;5.70;;;13.80;97.30;;;;;;4997502;28;20474;-81
2022/06/02 07:59:12;;;;;;;9.30;5.30;;;13.80;97.30;;;;;;4996516;28;20474;-83
2022/06/02 08:02:06;;;;;;;6.30;5.73;;;13.80;97.30;;;;;;4996490;28;20416;-83
2022/06/02 08:05:18;;;;;;;7.80;5.10;;;13.90;97.30;;;;;;4997250;28;20558;-82
2022/06/02 08:07:54;;;;;;;6.30;4.30;;;14.00;97.30;;;;;;4994419;28;20447;-83
2022/06/02 08:10:43;;;;;;;6.40;4.23;;;14.00;97.30;;;;;;4996200;28;20450;-82
2022/06/02 08:13:15;;;;;;;7.20;5.07;;;14.10;97.30;;;;;;4995984;28;20877;-85
2022/06/02 08:16:16;;;;;;;6.30;4.60;;;14.20;97.30;;;;;;4996477;28;20794;-83
2022/06/02 08:19:06;;;;;;;5.40;4.27;;;14.30;97.30;;;;;;4996066;28;20470;-83
2022/06/02 08:21:46;;;;;;;7.00;4.77;;;14.30;97.30;;;;;;4996175;28;20417;-83
2022/06/02 08:24:58;;;;;;;9.07;5.03;;;14.40;97.30;;;;;;4996064;28;20427;-83
2022/06/02 08:27:48;;;;;;;4.83;4.23;;;14.50;97.30;;;;;;4951947;29;20445;-83
2022/06/02 08:30:23;;;;;;;8.03;5.20;;;14.60;97.30;;;;;;4993073;28;20992;-83
2022/06/02 08:33:13;;;;;;;7.60;5.60;;;14.80;97.20;;;;;;4995512;28;21196;-83
2022/06/02 08:35:53;;;;;;;5.50;4.30;;;14.90;96.90;;;;;;4995444;28;20811;-83
2022/06/02 08:38:39;;;;;;;6.50;5.10;;;14.90;96.80;;;;;;5014398;28;20481;-82
2022/06/02 08:41:42;;;;;;;5.87;4.30;;;14.90;96.80;;;;;;5020211;28;20937;-82
2022/06/02 08:44:26;;;;;;;9.00;5.63;;;15.20;96.50;;;;;;5023200;28;20461;-81
2022/06/02 08:47:06;;;;;;;5.33;4.40;;;15.30;95.50;;;;;;5023182;28;20474;-81
2022/06/02 08:49:51;;;;;;;7.13;5.53;;;15.30;94.90;;;;;;5021935;28;20426;-81
2022/06/02 08:52:54;;;;;;;7.63;5.70;;;15.30;95.20;;;;;;5024035;28;20415;-81
2022/06/02 08:55:41;;;;;;;5.23;3.53;;;15.30;94.50;;;;;;5021537;28;20478;-82
2022/06/02 08:58:29;;;;;;;3.90;3.27;;;15.30;93.50;;;;;;5022083;28;20477;-82
2022/06/02 09:01:09;;;;;;;6.20;4.93;;;15.20;91.50;;;;;;5038295;28;20454;-82
2022/06/02 09:04:00;;;;;;;6.50;4.87;;;15.30;92.00;;;;;;5020422;28;20464;-82
2022/06/02 09:06:57;;;;;;;7.90;4.97;;;15.40;92.80;;;;;;5037444;28;20428;-83
2022/06/02 09:09:38;;;;;;;8.73;6.13;;;15.70;93.20;;;;;;5021888;28;20419;-82
2022/06/02 09:12:32;;;;;;;5.30;3.50;;;15.80;93.20;;;;;;5036303;28;20399;-82
2022/06/02 09:15:35;;;;;;;8.77;3.10;;;15.90;93.00;;;;;;5018792;28;20407;-83
2022/06/02 09:18:15;;;;;;;6.37;4.17;;;16.10;92.10;;;;;;5021612;28;20531;-82
2022/06/02 09:20:41;;;;;;;3.63;3.30;;;16.20;90.70;;;;;;5022954;28;20895;-82
2022/06/02 09:23:15;;;;;;;4.80;3.73;;;16.20;88.90;;;;;;5022781;28;20428;-81
2022/06/02 09:26:06;;;;;;;5.70;4.90;;;16.30;89.20;;;;;;5022281;28;20230;-82
2022/06/02 09:28:57;;;;;;;6.27;4.50;;;16.30;89.10;;;;;;5021113;28;20921;-81
2022/06/02 09:31:37;;;;;;;6.40;4.50;;;16.30;89.00;;;;;;5021008;28;20422;-81
2022/06/02 09:34:41;;;;;;;7.00;4.33;;;16.20;88.50;;;;;;5021711;28;20426;-81
2022/06/02 09:37:23;;;;;;;4.80;3.33;;;16.00;88.90;;;;;;5019995;28;20872;-81
2022/06/02 09:40:10;;;;;;;6.40;4.30;;;15.90;88.50;;;;;;5021320;28;20502;-82
2022/06/02 09:42:50;;;;;;;5.10;4.17;;;16.00;89.10;;;;;;5021410;28;20458;-81
2022/06/02 09:45:42;;;;;;;4.77;4.13;;;16.20;90.10;;;;;;5020662;28;20843;-81
2022/06/02 09:48:20;;;;;;;6.57;4.70;;;16.30;89.90;;;;;;5020723;28;20423;-82
2022/06/02 09:50:54;;;;;;;6.33;4.50;;;16.30;89.50;;;;;;5020776;28;20418;-81
2022/06/02 09:53:26;;;;;;;7.67;5.53;;;16.20;89.30;;;;;;5021764;28;20789;-81
2022/06/02 09:56:13;;;;;;;6.40;3.73;;;16.20;89.90;;;;;;5019947;28;20467;-82
2022/06/02 09:59:11;;;;;;;4.17;3.70;;;16.40;90.50;;;;;;5016942;28;20422;-82
2022/06/02 10:02:15;;;;;;;4.00;3.77;;;16.60;87.50;;;;;;4966105;28;20785;-82
2022/06/02 10:05:13;;;;;;;4.50;3.80;;;16.90;87.70;;;;;;5018129;28;20415;-82
2022/06/02 10:07:49;;;;;;;4.03;3.40;;;17.10;86.70;;;;;;5020785;28;20435;-81
2022/06/02 10:10:39;;;;;;;3.77;3.23;;;17.20;86.30;;;;;;5022465;28;20517;-81
2022/06/02 10:13:34;;;;;;;5.50;4.13;;;17.20;86.10;;;;;;5021193;28;20429;-82
2022/06/02 10:16:24;;;;;;;3.27;3.10;;;17.10;86.00;;;;;;5020928;28;20477;-82
2022/06/02 10:18:56;;;;;;;4.20;3.30;;;17.00;87.00;;;;;;5020923;28;20542;-82
2022/06/02 10:21:24;;;;;;;2.80;2.57;;;17.00;87.20;;;;;;5018644;28;20423;-82
2022/06/02 10:24:05;;;;;;;4.73;3.03;;;17.00;84.70;;;;;;5018500;28;20435;-82
2022/06/02 10:27:05;;;;;;;5.57;3.30;;;17.20;84.60;;;;;;5018975;28;20435;-81
2022/06/02 10:30:08;;;;;;;5.87;3.70;;;17.40;85.20;;;;;;5021380;28;20434;-82
2022/06/02 10:32:52;;;;;;;5.40;3.93;;;17.50;86.10;;;;;;5039629;28;20407;-81
2022/06/02 10:35:39;;;;;;;4.03;3.57;;;17.40;86.50;;;;;;5020834;28;20423;-81
2022/06/02 10:38:33;;;;;;;5.00;3.50;;;17.40;85.50;;;;;;5021059;28;20430;-82
2022/06/02 10:41:41;;;;;;;4.63;3.20;;;17.40;85.50;;;;;;5020724;28;20455;-81
2022/06/02 10:44:38;;;;;;;4.40;2.80;;;17.40;85.40;;;;;;5014944;28;20486;-82
2022/06/02 10:47:33;;;;;;;3.57;2.80;;;17.40;84.90;;;;;;5003726;28;20477;-80
2022/06/02 10:50:25;;;;;;;3.13;2.97;;;17.60;85.00;;;;;;5021112;28;20419;-82
2022/06/02 10:52:55;;;;;;;2.57;2.37;;;17.80;84.40;;;;;;5021660;28;20418;-82
2022/06/02 10:55:51;;;;;;;2.53;2.40;;;17.90;84.30;;;;;;5021225;28;20463;-81
2022/06/02 10:58:39;;;;;;;3.50;2.70;;;18.00;82.80;;;;;;5022034;28;20415;-81
2022/06/02 11:01:31;;;;;;;3.90;3.10;;;18.00;84.00;;;;;;5022142;28;20442;-81
2022/06/02 11:04:45;;;;;;;4.37;3.07;;;18.00;83.00;;;;;;5022373;28;20431;-81
2022/06/02 11:07:48;;;;;;;2.60;2.40;;;18.00;82.90;;;;;;5021059;28;20431;-82
2022/06/02 11:10:41;;;;;;;4.37;2.40;;;18.00;83.20;;;;;;5021391;28;20407;-81
2022/06/02 11:13:37;;;;;;;2.87;2.40;;;18.20;84.70;;;;;;5025473;28;20876;-81
2022/06/02 11:16:33;;;;;;;4.93;2.60;;;18.40;83.20;;;;;;5023591;28;20438;-81
2022/06/02 11:19:34;;;;;;;2.30;2.10;;;18.50;81.40;;;;;;5025608;28;20465;-81
2022/06/02 11:22:50;;;;;;;3.00;2.53;;;18.50;82.20;;;;;;5025625;28;20422;-81
2022/06/02 11:25:37;;;;;;;3.27;2.80;;;18.40;83.00;;;;;;4994724;28;20587;-84
2022/06/02 11:28:49;;;;;;;3.70;2.83;;;18.50;82.90;;;;;;5016157;28;20421;-83
2022/06/02 11:31:36;;;;;;;3.00;2.60;;;18.60;83.00;;;;;;5016031;28;20429;-84
2022/06/02 11:34:16;;;;;;;4.30;2.50;;;18.80;81.30;;;;;;5016350;28;20423;-84
2022/06/02 11:37:14;;;;;;;3.10;2.50;;;18.90;80.70;;;;;;5015709;28;20423;-84
2022/06/02 11:40:18;;;;;;;2.60;2.40;;;19.10;81.30;;;;;;5016153;28;20459;-84
2022/06/02 11:43:13;;;;;;;2.10;2.00;;;19.20;80.50;;;;;;5011711;28;20421;-84
2022/06/02 11:45:57;;;;;;;3.73;2.40;;;19.30;81.80;;;;;;5016100;28;20762;-84
2022/06/02 11:48:45;;;;;;;3.40;2.47;;;19.40;80.50;;;;;;5015875;28;20926;-83
2022/06/02 11:51:50;;;;;;;3.67;2.60;;;19.60;80.80;;;;;;5015731;28;20415;-84
2022/06/02 11:54:51;;;;;;;2.90;2.60;;;19.60;79.80;;;;;;5015834;28;20564;-83
2022/06/02 11:57:34;;;;;;;4.70;3.30;;;19.60;80.40;;;;;;4978450;28;20945;-84
2022/06/02 12:00:30;;;;;;;2.63;2.20;;;19.50;80.20;;;;;;5033185;28;20458;-83
2022/06/02 12:03:10;;;;;;;3.83;2.90;;;19.30;80.60;;;;;;5015564;28;20883;-83
2022/06/02 12:05:57;;;;;;;4.30;3.40;;;19.20;82.70;;;;;;5015494;28;20477;-84
2022/06/02 12:08:56;;;;;;;4.30;2.83;;;19.30;81.70;;;;;;5015452;28;20967;-86
2022/06/02 12:11:45;;;;;;;4.27;2.80;;;19.50;79.30;;;;;;5015215;28;20407;-84
2022/06/02 12:14:32;;;;;;;3.20;2.97;;;19.70;79.40;;;;;;5015439;28;20439;-85
2022/06/02 12:17:32;;;;;;;4.40;2.40;;;19.80;78.40;;;;;;5014879;28;20430;-85
2022/06/02 12:20:09;;;;;;;4.07;2.57;;;19.60;78.00;;;;;;5015175;28;20463;-86
2022/06/02 12:22:47;;;;;;;3.80;3.00;;;19.80;79.80;;;;;;5014834;28;20411;-85
2022/06/02 12:25:12;;;;;;;3.13;2.87;;;19.90;79.40;;;;;;5015057;28;20473;-84
2022/06/02 12:27:41;;;;;;;4.07;2.70;;;20.10;80.10;;;;;;5015299;28;20514;-84
2022/06/02 12:30:19;;;;;;;2.70;2.40;;;20.30;78.30;;;;;;5015365;28;20180;-84
2022/06/02 12:32:50;;;;;;;5.30;3.03;;;20.40;77.60;;;;;;5015779;28;20426;-84
2022/06/02 12:35:51;;;;;;;3.43;2.70;;;20.50;77.20;;;;;;5015511;28;20508;-84
2022/06/02 12:38:41;;;;;;;7.87;3.10;;;20.50;76.80;;;;;;4913793;29;20457;-84
2022/06/02 12:41:10;;;;;;;5.93;2.70;;;20.40;77.50;;;;;;4991132;28;20425;-84
2022/06/02 12:43:55;;;;;;;3.23;2.53;;;20.40;77.70;;;;;;4995222;28;20672;-84
2022/06/02 12:46:29;;;;;;;2.80;2.60;;;20.40;77.70;;;;;;4995054;28;20428;-83
2022/06/02 12:49:22;;;;;;;4.13;2.40;;;20.40;79.40;;;;;;4995481;28;20913;-84
2022/06/02 12:51:48;;;;;;;2.57;2.37;;;20.60;81.40;;;;;;4994979;28;20771;-84
2022/06/02 12:54:41;;;;;;;4.57;2.60;;;20.80;80.40;;;;;;4994713;28;20485;-84
2022/06/02 12:57:47;;;;;;;4.03;2.80;;;21.00;79.50;;;;;;4994615;28;20275;-85
2022/06/02 13:00:19;;;;;;;5.80;2.33;;;21.20;77.50;;;;;;4994902;28;20467;-84
2022/06/02 13:03:07;;;;;;;4.90;2.20;;;21.30;77.30;;;;;;4994941;28;20952;-84
2022/06/02 13:06:10;;;;;;;3.30;2.60;;;21.30;77.20;;;;;;4994521;28;20420;-84
2022/06/02 13:08:56;;;;;;;3.70;2.03;;;21.00;76.30;;;;;;4994949;28;20519;-84
2022/06/02 13:11:37;;;;;;;3.83;2.20;;;20.70;77.10;;;;;;4994905;28;20495;-84
2022/06/02 13:14:33;;;;;;;2.20;2.10;;;20.60;78.10;;;;;;4994611;28;20416;-84
2022/06/02 13:17:47;;;;;;;3.80;2.30;;;20.60;78.50;;;;;;4994554;28;20779;-84
2022/06/02 13:20:41;;;;;;;2.50;2.10;;;20.80;78.00;;;;;;4996982;28;20467;-84
2022/06/02 13:23:16;;;;;;;3.20;2.60;;;20.90;78.60;;;;;;4994913;28;20451;-84
2022/06/02 13:26:06;;;;;;;2.43;2.20;;;21.20;77.70;;;;;;4994247;28;20423;-85
2022/06/02 13:28:49;;;;;;;4.90;2.47;;;21.30;77.00;;;;;;4994333;28;20408;-84
2022/06/02 13:31:18;;;;;;;2.20;2.00;;;21.60;79.40;;;;;;4994663;28;20432;-84
2022/06/02 13:34:32;;;;;;;3.10;2.43;;;21.80;77.40;;;;;;5011005;28;20431;-84
2022/06/02 13:37:20;;;;;;;2.40;2.20;;;22.10;78.50;;;;;;5018177;28;20824;-84
2022/06/02 13:39:51;;;;;;;2.07;1.93;;;22.40;78.40;;;;;;5012694;28;20455;-84
2022/06/02 13:42:36;;;;;;;2.40;2.20;;;22.60;74.30;;;;;;5014597;28;20412;-84
2022/06/02 13:45:41;;;;;;;2.10;1.70;;;22.50;71.90;;;;;;5018452;28;20403;-81
2022/06/02 13:48:25;;;;;;;4.80;2.23;;;22.50;73.60;;;;;;5035815;28;20494;-82
2022/06/02 13:50:56;;;;;;;2.43;2.30;;;22.60;75.30;;;;;;5016273;28;20404;-84
2022/06/02 13:59:47;;;;;;;2.43;2.23;;;23.00;71.30;;;;;;5030519;28;20461;-84
2022/06/02 14:02:33;;;;;;;3.10;2.37;;;23.10;71.40;;;;;;5013283;28;20431;-84
2022/06/02 14:05:24;;;;;;;4.80;2.57;;;23.30;71.10;;;;;;5012785;28;21019;-84
2022/06/02 14:08:17;;;;;;;2.23;2.00;;;23.30;69.80;;;;;;5012671;28;20780;-84
2022/06/02 14:10:50;;;;;;;2.00;1.90;;;23.40;72.80;;;;;;5013833;28;20415;-83
2022/06/02 14:13:37;;;;;;;2.40;2.07;;;23.50;71.80;;;;;;5009808;28;20937;-84
2022/06/02 14:16:06;;;;;;;3.47;1.90;;;23.70;70.90;;;;;;5013381;28;20967;-83
2022/06/02 14:18:39;;;;;;;2.80;2.57;;;23.80;71.70;;;;;;5012731;28;20422;-83
2022/06/02 14:21:36;;;;;;;3.93;1.93;;;23.80;69.90;;;;;;4986293;28;20953;-84
2022/06/02 14:24:35;;;;;;;6.30;2.50;;;23.80;71.40;;;;;;5009892;28;20421;-83
2022/06/02 14:27:46;;;;;;;2.30;2.00;;;23.80;70.30;;;;;;5012271;28;20442;-83
2022/06/02 14:30:13;;;;;;;3.33;2.23;;;23.60;68.30;;;;;;5019335;28;20415;-84
2022/06/02 14:33:02;;;;;;;2.87;2.07;;;23.70;70.90;;;;;;5007887;28;20451;-84
2022/06/02 14:35:30;;;;;;;2.17;1.90;;;23.90;72.30;;;;;;5012845;28;20423;-84
2022/06/02 14:38:07;;;;;;;2.10;1.70;;;24.10;71.10;;;;;;5010087;28;20420;-85
2022/06/02 14:41:07;;;;;;;4.13;2.13;;;24.10;71.60;;;;;;5037240;28;20462;-82